Aviation Digital Data Service (ADDS)

Output produced by TAFs form (2044 UTC 28 June 2017)
found at http://aviationweather.gov/adds/tafs/
 
KTCS 281737Z 2818/2918 30010KT P6SM SKC 
     FM282000 25010G20KT P6SM FEW100 
     FM290300 30011KT P6SM SKC 
     FM291600 19015G25KT P6SM SKC